AirNav   Pilot Hours Calculator
 
 879 users online  

KSLI Los Alamitos Army Airfield
Los Alamitos, California, USA

GOING TO LOS ALAMITOS?


FAA INFORMATION EFFECTIVE 26 MARCH 2020

Location

FAA Identifier: SLI
Lat/Long: 33-47-24.1080N 118-03-05.1120W
33-47.401800N 118-03.085200W
33.7900300,-118.0514200
(estimated)
Elevation: 35.5 ft. / 10.8 m (surveyed)
Variation: 12E (2020)
From city: 1 mile SE of LOS ALAMITOS, CA
Time zone: UTC -7 (UTC -8 during Standard Time)
Zip code: 90720

Airport Operations

Airport use: Private use. Permission required prior to landing
Activation date: 04/1944
Control tower: yes
ARTCC: LOS ANGELES CENTER
FSS: HAWTHORNE FLIGHT SERVICE STATION
NOTAMs facility: SLI (NOTAM-D service available)
Attendance: FRI 1400-0100Z++, ALL SAT-SUN 1400-0000Z++, ALL MON-THU 1400-0600Z++
CLSD ALL FED HOL. EXP CLOSURE OR REDUCED SVC PER NOTAM. RSTD: PPR CTC AFLD OPS, RCMD UNITS ASK FOR CURRENT CPBLTY WHEN REQG PPR DSN 972-2571, C562-795-2571; NG.CA.CAARNG.MBX.KSLIOPERATIONS@MAIL.MIL FOR PPR REQ FORM.
Segmented circle: no
Lights: SS-SR
Beacon: white-white-green (lighted military airport)
Operates sunset to sunrise.

Airport Communications

ATIS: 118.875 379.975
LOS ALAMITOS GROUND: 126.95 257.95 [1500-0600Z++ TUE-THU, 1500-0000Z++ FRI & MON; CLSDALL FEDERAL HOL.]
LOS ALAMITOS TOWER: 123.85 251.15 [1500-0600Z++ TUE-THU, 1500-0000Z++ FRI & MON; CLSDALL FEDERAL HOL.]
SOCAL APPROACH: 125.35
SOCAL DEPARTURE: 125.35
AR OPS: 139.05 230.9
EMERG: 243.0
HAWWC DP: 125.35
OPS: 126.2 ;AFLD OPS ADVSY SVC 233.8 ;ARNG AASF 237.2 ;AFLD OPS ADVSY SVC 41.5 ;ARNG AASF
RADAR: 124.75 127.95 230.8 231.0 234.1
WX ASOS at LGB (5 nm W): PHONE 562-424-0572
WX ASOS at FUL (6 nm NE): PHONE 714-870-1372
WX AWOS-3PT at CPM (11 nm NW): 127.150 (310-631-4958)
WX ASOS at SNA (11 nm SE): PHONE 714-424-0590
WX ASOS at HHR (16 nm NW): PHONE 310-973-8930
WX AWOS-3PT at EMT (18 nm N): 118.75 ((626) 444-1107)
WX ASOS at LAX (20 nm NW): PHONE 310-568-1486

Nearby radio navigation aids

VOR radial/distance  VOR name  Freq  Var
SLI at fieldSEAL BEACH VORTAC115.7015E
ELBr279/17.4EL TORO VOR/DME117.2014E
LAXr099/20.8LOS ANGELES VORTAC113.6015E
POMr202/21.7POMONA VORTAC110.4015E
SMOr108/24.1SANTA MONICA VOR/DME110.8015E
PDZr238/27.1PARADISE VORTAC112.2015E
SXCr021/31.0SANTA CATALINA VORTAC111.4015E
RALr238/(31.6)RIVERSIDE VOR112.4014E
VNYr125/34.0VAN NUYS VOR/DME113.1015E

Airport Services

Fuel available: A1+ JET-B+ J8
Oil available: AFLD OPS ADVSY 126.2/237.2 WHEN LOS ALAMITOS TWR CLSD.

Runway Information

Runway 4R/22L

Dimensions: 7999 x 200 ft. / 2438 x 61 m
Surface: asphalt/concrete
Weight bearing capacity: 
PCN 36 /R/C/W/T
Runway edge lights: high intensity
HIRL ELEV 1' AND LCTD 5' FR EDGE OF RWY.
RUNWAY 4R  RUNWAY 22L
Latitude: 33-47.026767N33-47.783300N
Longitude: 118-03.613500W118-02.319133W
Elevation: 21.2 ft.35.5 ft.
Traffic pattern: leftleft
Visual slope indicator: 4-light PAPI on left (3.00 degrees glide path)
Approach lights: SALSF
Runway end identifier lights: noyes
Centerline lights: yesyes
Touchdown point: yes, no lightsyes, no lights

Runway 4L/22R

Dimensions: 5901 x 150 ft. / 1799 x 46 m
Surface: PEM
Weight bearing capacity: 
PCN 36 /F/C/W/T
Runway edge lights: medium intensity
RUNWAY 4L  RUNWAY 22R
Latitude: 33-47.118333N33-47.676383N
Longitude: 118-03.723767W118-02.768750W
Elevation: 20.0 ft.26.9 ft.
Traffic pattern: leftleft
Touchdown point: yes, no lightsyes, no lights

Airport Ownership and Management from official FAA records

Ownership: U.S. Army
Owner: US ARMY
AASF, CAARNG, 4612 DOOLITTLE AVE
LOS ALAMITOS, CA 90720
Phone 562-795-2571
Manager: BASE OPS
LOS ALAMITOS, CA 90720
Phone 562-795-1351
AIRFIELD OPERATIONS: C562-795-2571/2561

Additional Remarks

RWY-LGTS: RWY 22L - SF.
MISC - WINDS ARE ACCURATE TO WITHIN PLUS OR MINUS 4 KNOTS.
MISC: TO EXCEED WT BRG CAP CTC AFLD OPS. SEE FLIP AP/1 RTE AND AREA RSTD AND SUPPLEMENT ARPT RMK.
ARNG AASF OPS- OPR 1530-2330Z++ MON-FRI; EXC HOL. DSN 972-2006, C562-795-2006. HTTP://WWW.CALGUARD.CA.GOV/AASF1.
RSTD: FOR SPECIAL AFTER HRS LNDG AND AFLD LIGHTING REQUESTS FOR ACFT WEIGHING UNDER 14,500 LBS, CALL AFLD OPS AT 562-795-2571.
SERVICE: MILITARY - 1 (TMD150CIII) AIRSTAIRS TRAN ALERT - OPR 1600-2330Z++ SAT-SUN, 1430-0030Z++ MON, 1430-0530Z++ TUE-THU, 1430-0030Z++ FRI, CLSD ALL FEDERAL HOL. EXP CLOSURE OR RDCD SVC PER NOTAM. NO PRIORITY BASIS. EXP SVC DELAYS IF HEAVY ACFT ARE UTILIZING LAAAF. NO ACFT LAV SVC OR BELT LOAD CTC AIRSERV AT KLGB 866-247-7378 OR 562-429-8062. LTD TRAN SVC. NO SHUTTLE SVC AVBL.
CLASSIFIED STOR FOR TRAN AIRCREW UNAVBL AT AFLD MGMT OPS; CTC BASE SECFOR DSN 972-2001, C562-795-2001.
AIRCREWS UTILIZING LAAAF MUST ADVS THEIR DEP TO LOCAL FSS TO INCL KSLIYXYX AS AN ADDRESSEE ON THE ORIG DD 175 FLT PLAN AND ON ANY CHG, DELAY, DEP AND CNL MSG.
ALL TRAN AIRCREWS MUST RPT TO AFLD OPS. HIGH VIS EVENTS (VIP CODE 7 AND ABV) ARE RQRD TO NTFY AFLD OPS 30 MIN PRIOR TO ARR DUE TO POST HQ COORD.
RWY-17/35 CLSD (2500X150 ASP).
MISC: AFLD SIGNS NSTD. RWY 04R/22L THLD BARS NSTD. ALL RWY MARKINGS NSTD. TWY LINES NSTD AND NOT VIS IN DARKNESS OR INCLEMENT WX.
MISC: WILDLIFE HAZ EXISTS; RQRS INCRD VIGILANCE BY ALL AGENCIES AND SUPVRS AND CTN BY AIRCREWS. PILOTS SHOULD RPRT ALL LARGE BIRD AND MAMMAL SIGHTINGS TO TWR OR BASOPS.
FOR CD WHEN ATCT IS CLSD CTC AFLD OPS ON ADVSY OR SOCAL APP AT 800-448-3724.
JASU - 2(AGPU).
NS ABTMT - PRO IN EFF. ALL DEP RQR BRIEFINGS.

Instrument Procedures

NOTE: All procedures below are presented as PDF files. If you need a reader for these files, you should download the free Adobe Reader.

NOT FOR NAVIGATION. Please procure official charts for flight.
FAA instrument procedures published for use from 26 March 2020 at 0901Z to 23 April 2020 at 0900Z.

 
STARs - Standard Terminal Arrivals
KAYOH SEVEN   download (302KB)
 
IAPs - Instrument Approach Procedures
RNAV (GPS) RWY 22L   download (55KB)
VOR OR TACAN RWY 22L   download (139KB)
Radar Approach Procedures available   download (74KB)
 
Departure Procedures
HAWWC THREE (RNAV)   download (174KB)
NOTE: Special Take-Off Minimums/Departure Procedures apply   download (215KB)

Other nearby airports with instrument procedures:

KLGB - Long Beach Airport (Daugherty Field) (5 nm W)
KFUL - Fullerton Municipal Airport (6 nm NE)
KSNA - John Wayne-Orange County Airport (11 nm SE)
KTOA - Zamperini Field Airport (14 nm W)
KHHR - Jack Northrop Field/Hawthorne Municipal Airport (16 nm NW)
KEMT - San Gabriel Valley Airport (18 nm N)
KLAX - Los Angeles International Airport (20 nm NW)
 
Loc | Ops | Rwys | IFR | FBO | Links
Com | Nav | Svcs | Stats | Notes

San Bernardino International Airport Authority
 
Area around KSLI (Los Alamitos Army Airfield)
 
Road maps at: MapQuest Bing Google
 
Aerial photo
WARNING: Photo may not be current or correct
Aerial photo of KSLI (Los Alamitos Army Airfield)
Photo courtesy of FocalFlight.com
Photo taken 01-Nov-2015
looking north.

Do you have a better or more recent aerial photo of Los Alamitos Army Airfield that you would like to share? If so, please send us your photo.

 
Sectional chart

 
Airport diagram
Diagram of KSLI (Los Alamitos Army Airfield)
Download PDF
of official airport diagram from the FAA

 
Airport distance calculator
Flying to Los Alamitos Army Airfield? Find the distance to fly.

From to KSLI

Sunrise and sunset
Times for 10-Apr-2020
 Local
(UTC-7)
 Zulu
(UTC)
Morning civil twilight06:0213:02
Sunrise06:2713:27
Sunset19:1902:19
Evening civil twilight19:4502:45

Current date and time
Zulu (UTC)  10-Apr-2020 13:36:34
Local (UTC-7)  10-Apr-2020 06:36:34
 
METAR
KSLI 
2nm SE 
101306Z AUTO 05009KT 10SM FEW005 SCT011 SCT017 OVC023 10/09 A2997 RMK AO2 DZE05RAB05E06 CIG 017V023 SLP152
KLGB 
5nm W 
101253Z AUTO 06007KT 10SM BKN060 OVC080 11/08 A2998 RMK AO2 RAE28 SLP152 P0000 T01060083
KFUL 
6nm NE 
101253Z AUTO 06005KT 9SM -RA SCT032 OVC047 11/08 A2998 RMK AO2 SLP150 P0002 T01110078
KSNA 
12nm SE 
101253Z 05004KT 10SM OVC055 12/09 A2997 RMK AO2 SLP149 T01220094
KTOA 
13nm W 
100247Z 06004KT 6SM RA SCT010 BKN021 OVC055 12/12 A3007
KHHR 
16nm NW 
101053Z AUTO VRB03KT 8SM -RA SCT030 OVC037 10/08 A3002 RMK AO2 SLP165 P0007 T01000083 $
KEMT 
17nm N 
100250Z VRB04KT 5SM SHRA BKN027 OVC040 10/09 A3009
KCQT 
18nm NW 
101252Z AUTO VRB03KT 10SM -RA OVC060 11/07 A2999 RMK AO2 SLP155 P0002 T01060067
KLAX 
19nm NW 
101253Z 06008KT 9SM -RA FEW019 SCT025 OVC050 11/08 A2999 RMK AO2 SLP154 P0003 T01110078 $
TAF
KSLI 
2nm SE 
100616Z 1005/1111 09009KT 8000 -RA OVC050 QNH2992INS TEMPO 1005/1010 6000 RA BECMG 1102/1103 15009KT 9999 NSW SCT020 QNH2993INS TEMPO 1103/1106 8000 -RA TX16/1022Z TN10/1012Z
KLGB 
5nm W 
101156Z 1012/1112 05006KT P6SM -RA SCT019 BKN029 OVC050 FM101500 10005KT P6SM -SHRA OVC050 FM102200 24010KT P6SM VCSH BKN050 FM110400 VRB03KT P6SM BKN050 FM111000 VRB03KT P6SM SCT015
KSNA 
12nm SE 
101126Z 1012/1112 07008KT P6SM -RA SCT025 OVC035 TEMPO 1012/1015 4SM RA BR BKN025 FM101500 VRB06KT P6SM -SHRA SCT025 OVC035 TEMPO 1015/1019 5SM -SHRA BR BKN020 FM101900 22011KT P6SM VCSH SCT025 OVC035 FM110200 VRB05KT P6SM VCSH SCT025 BKN035 FM110400 VRB04KT P6SM SCT025 SCT035
KLAX 
19nm NW 
101134Z 1012/1118 05008KT P6SM -RA BKN029 OVC050 FM101900 35006KT P6SM -RA BKN035 OVC050 FM102100 26012KT P6SM VCSH SCT035 BKN060 FM110300 27006KT P6SM VCSH OVC050 FM110600 VRB03KT P6SM BKN050 FM111000 VRB03KT P6SM SCT015
NOTAMs
Click for the latest NOTAMs
NOTAMs are issued by the DoD/FAA and will open in a separate window not controlled by AirNav.

 

 
 

Would you like to see your business listed on this page?

 If your business provides an interesting product or service to pilots, flight crews, aircraft, or users of the Los Alamitos Army Airfield, you should consider listing it here.  To start the listing process, click on the button below
 
Add a business
 

Other Pages about Los Alamitos Army Airfield

www.aircav.com/sli.html
 
Update a link
 
Copyright © AirNav, LLC. All rights reserved. Privacy Policy  Contact